الصفحة الرئيسية
METAR-TAF:

METAR-TAF

مطار :

بروناي, بروناي

دائرة عرض: 04-56N, خط طول: 114-56E, ارتفاع: 22 متر

مراقبة الطقس الحالي

تاريخ ووقت الإصدار 35 دقيقة قبل الساعة 03:30UTC
ريح 4 عقدة من الشمال
درجة الحرارة 31°درجة مئوية
الرطوبة 71%
ضغط 1011 hPa
الرؤية 10 كم أو أكثر
غيوم متفرقة على ارتفاع 1500 قدم
غيوم قليلة على ارتفاع 1600 قدم, مزنة ركامية.
غيوم مفككة على ارتفاع 14000 قدم

METAR: WBSB 230330Z 35004KT 9999 SCT015 FEW016CB BKN140 31/25 Q1011 NOSIG

زمن: 12:05 (04:05 UTC)

توقعات

تاريخ ووقت الإصدار 5ساعات و 5 دقيقة قبل الساعة 23:00UTC
التوقعات صالحة من23 الساعة 00 UTC إلى 24 الساعة 06 UTC
ريح 3 عقدة من الجنوب/الجنوب الغربي
الرؤية 10 كم أو أكثر
غيوم قليلة على ارتفاع 1500 قدم
غيوم قليلة على ارتفاع 1600 قدم, مزنة ركامية.
مؤقت
من 23 الساعة 03 UTC إلى 23 الساعة 05 UTC
الرؤية: 7000 متر
زخات من الأمطار الخفيفة
أصبح
من 23 الساعة 04 UTC إلى 23 الساعة 06 UTC
ريح 8 عقدة من الشمال الغربي
غيوم متفرقة على ارتفاع 1600 قدم
غيوم قليلة على ارتفاع 1700 قدم, مزنة ركامية.

TAF: WBSB 222300Z 2300/2406 20003KT 9999 FEW015 FEW016CB TEMPO 2303/2305 7000 -SHRA BECMG 2304/2306 32008KT SCT016 FEW017CB

أرصاد الطقس والتوقعات من أكثر من 4000 مطار (تقارير الطقس للمطار METAR والتنبؤ بالطقس بالمطارTAF).

المحطات المتاحة هي النقط الصفراء والحمراء على الخريطة.

حرك المؤشر فوق النقطة لمعرفة اسم المحطة.

ثم انقر لمعرفة أرصاد وتوقعات الطقس.

لتغيير الخارطة: اضغط على الأزرار الخضراء مع رمز الصليب الأسود للتكبير. على الزر الأخضر مع شرطة للتصغير، أو على الأسهم الخضراء للخرائط المجاورة.


METAR-TAF: